Time;durP1;ratioP1;P1;durP2;ratioP2;P2;SDS_P1;SDS_P2;PMS_P1;PMS_P2;Temp;Humidity;BMP_temperature;BMP_pressure;BME280_temperature;BME280_humidity;BME280_pressure;Samples;Min_cycle;Max_cycle;Signal;HPM_P1;HPM_P2
2021/08/03 00:01:03;;;;;;;2.63;1.70;;;13.60;93.10;;;;;;5031943;28;20046;-67
2021/08/03 00:03:33;;;;;;;4.70;2.30;;;13.50;93.20;;;;;;5032491;28;20090;-68
2021/08/03 00:06:03;;;;;;;4.40;2.17;;;13.50;93.20;;;;;;5031677;28;20481;-68
2021/08/03 00:08:39;;;;;;;5.03;2.10;;;13.50;93.30;;;;;;5032435;28;20053;-68
2021/08/03 00:11:06;;;;;;;3.10;2.10;;;13.50;93.30;;;;;;5032328;28;20114;-68
2021/08/03 00:13:34;;;;;;;2.90;2.17;;;13.40;93.30;;;;;;5031386;28;20574;-68
2021/08/03 00:16:03;;;;;;;3.40;2.20;;;13.40;93.40;;;;;;5032375;28;20059;-68
2021/08/03 00:18:30;;;;;;;4.60;2.63;;;13.40;93.40;;;;;;5032288;28;20041;-68
2021/08/03 00:20:57;;;;;;;3.33;2.43;;;13.40;93.50;;;;;;5031569;28;20057;-68
2021/08/03 00:23:23;;;;;;;5.80;2.43;;;13.40;93.50;;;;;;5031909;28;20130;-68
2021/08/03 00:25:54;;;;;;;7.10;2.60;;;13.30;93.50;;;;;;5032298;28;20054;-68
2021/08/03 00:28:20;;;;;;;5.63;2.43;;;13.30;93.60;;;;;;5031381;28;20160;-68
2021/08/03 00:30:48;;;;;;;4.43;2.70;;;13.30;93.70;;;;;;5032268;28;20061;-68
2021/08/03 00:33:15;;;;;;;6.17;2.80;;;13.30;93.70;;;;;;5031863;28;20046;-68
2021/08/03 00:35:40;;;;;;;5.73;2.43;;;13.20;93.80;;;;;;5031187;28;20053;-68
2021/08/03 00:38:07;;;;;;;4.57;2.50;;;13.20;93.80;;;;;;5031937;28;20053;-68
2021/08/03 00:40:36;;;;;;;4.27;2.70;;;13.20;93.90;;;;;;5032136;28;20128;-67
2021/08/03 00:43:02;;;;;;;4.50;2.50;;;13.10;93.90;;;;;;5031062;28;20068;-68
2021/08/03 00:45:30;;;;;;;7.27;3.03;;;13.10;93.90;;;;;;5031972;28;20137;-68
2021/08/03 00:47:56;;;;;;;5.33;2.80;;;13.10;94.00;;;;;;5031755;28;20132;-68
2021/08/03 00:50:22;;;;;;;3.93;2.40;;;13.10;94.00;;;;;;5031369;28;20057;-68
2021/08/03 00:52:50;;;;;;;5.33;3.10;;;13.10;94.00;;;;;;5032391;28;20383;-67
2021/08/03 00:55:16;;;;;;;4.53;2.97;;;13.10;94.10;;;;;;5031037;28;20096;-68
2021/08/03 00:57:42;;;;;;;5.73;2.97;;;13.10;94.10;;;;;;5034862;28;20046;-68
2021/08/03 01:00:08;;;;;;;4.00;2.70;;;13.10;94.10;;;;;;5035372;28;20050;-68
2021/08/03 01:02:34;;;;;;;5.40;2.27;;;13.00;94.10;;;;;;5034931;28;20482;-67
2021/08/03 01:05:01;;;;;;;3.53;2.70;;;13.00;94.20;;;;;;5035318;28;20060;-68
2021/08/03 01:07:48;;;;;;;2.97;2.37;;;13.00;94.20;;;;;;5035796;28;20049;-68
2021/08/03 01:10:19;;;;;;;8.73;3.07;;;13.00;94.30;;;;;;5034633;28;20057;-68
2021/08/03 01:12:54;;;;;;;5.78;2.50;;;13.00;94.30;;;;;;5035495;28;20069;-68
2021/08/03 01:15:21;;;;;;;5.53;2.90;;;13.00;94.30;;;;;;5034903;28;20057;-68
2021/08/03 01:18:17;;;;;;;5.20;2.73;;;13.00;94.30;;;;;;5034934;28;20049;-68
2021/08/03 01:21:15;;;;;;;6.13;2.97;;;13.00;94.30;;;;;;5035343;28;20071;-67
2021/08/03 01:23:54;;;;;;;5.63;3.63;;;13.00;94.30;;;;;;5034599;28;20056;-68
2021/08/03 01:26:46;;;;;;;12.93;6.33;;;13.00;94.30;;;;;;5035080;28;20057;-67
2021/08/03 01:29:15;;;;;;;12.70;6.67;;;13.00;94.30;;;;;;5035012;28;20128;-68
2021/08/03 01:31:49;;;;;;;8.90;4.77;;;13.00;94.30;;;;;;5034423;28;20344;-68
2021/08/03 01:34:17;;;;;;;8.60;3.07;;;13.00;94.30;;;;;;5034879;28;20054;-68
2021/08/03 01:36:48;;;;;;;4.43;2.40;;;12.90;94.30;;;;;;5035080;28;20458;-68
2021/08/03 01:39:17;;;;;;;5.40;2.78;;;12.90;94.40;;;;;;5034331;28;20056;-68
2021/08/03 01:41:49;;;;;;;4.07;2.80;;;12.90;94.40;;;;;;5035051;28;20049;-68
2021/08/03 01:44:16;;;;;;;4.60;2.30;;;12.90;94.40;;;;;;5033980;28;20064;-68
2021/08/03 01:46:44;;;;;;;5.30;2.67;;;12.90;94.40;;;;;;5034842;28;20047;-68
2021/08/03 01:49:15;;;;;;;5.70;3.00;;;12.90;94.50;;;;;;5034826;28;20061;-67
2021/08/03 01:51:42;;;;;;;5.45;2.72;;;12.90;94.50;;;;;;5034365;28;20089;-68
2021/08/03 01:54:09;;;;;;;4.80;2.93;;;12.90;94.50;;;;;;5034352;28;20437;-68
2021/08/03 01:56:36;;;;;;;7.90;2.97;;;12.90;94.50;;;;;;5034962;28;20068;-68
2021/08/03 01:59:02;;;;;;;5.03;2.77;;;12.90;94.50;;;;;;5033663;28;20065;-68
2021/08/03 02:01:29;;;;;;;5.47;2.70;;;12.80;94.60;;;;;;5034498;28;20124;-67
2021/08/03 02:03:56;;;;;;;5.53;2.70;;;12.80;94.60;;;;;;5034845;28;20053;-68
2021/08/03 02:06:24;;;;;;;5.10;3.20;;;12.80;94.60;;;;;;5033596;28;20061;-67
2021/08/03 02:08:54;;;;;;;5.07;2.70;;;12.80;94.70;;;;;;5034556;28;20061;-68
2021/08/03 02:11:27;;;;;;;6.23;2.60;;;12.70;94.70;;;;;;5034041;28;20096;-68
2021/08/03 02:13:53;;;;;;;4.13;2.83;;;12.70;94.80;;;;;;5033741;28;20162;-68
2021/08/03 02:16:21;;;;;;;7.43;3.50;;;12.70;94.80;;;;;;5034272;28;20517;-68
2021/08/03 02:18:47;;;;;;;6.03;3.00;;;12.70;94.80;;;;;;5034293;28;20058;-68
2021/08/03 02:21:20;;;;;;;5.17;2.57;;;12.70;94.80;;;;;;5033365;28;20065;-68
2021/08/03 02:23:46;;;;;;;5.67;2.60;;;12.60;94.70;;;;;;5034573;28;20053;-68
2021/08/03 02:26:13;;;;;;;4.13;2.50;;;12.60;94.70;;;;;;5033774;28;20050;-68
2021/08/03 02:28:42;;;;;;;5.53;2.60;;;12.60;94.80;;;;;;5033447;28;20049;-68
2021/08/03 02:31:15;;;;;;;5.30;2.90;;;12.50;94.80;;;;;;5033961;28;20045;-68
2021/08/03 02:33:48;;;;;;;4.13;2.50;;;12.50;94.80;;;;;;5033343;28;20041;-68
2021/08/03 02:36:20;;;;;;;5.13;2.77;;;12.40;94.90;;;;;;5033685;28;20483;-68
2021/08/03 02:38:53;;;;;;;6.83;3.03;;;12.40;94.90;;;;;;5033979;28;20441;-67
2021/08/03 02:41:20;;;;;;;5.30;3.20;;;12.30;95.00;;;;;;5033104;28;20440;-68
2021/08/03 02:43:48;;;;;;;5.90;3.53;;;12.30;95.00;;;;;;5033796;28;20402;-67
2021/08/03 02:46:15;;;;;;;5.60;2.90;;;12.30;95.10;;;;;;5033442;28;20107;-68
2021/08/03 02:48:49;;;;;;;4.13;2.33;;;12.30;95.20;;;;;;5033013;28;20052;-68
2021/08/03 02:51:14;;;;;;;6.90;2.90;;;12.30;95.60;;;;;;5033255;28;20058;-68
2021/08/03 02:53:50;;;;;;;5.63;2.70;;;12.30;95.10;;;;;;5033801;28;20383;-68
2021/08/03 02:56:18;;;;;;;6.37;3.33;;;12.20;95.20;;;;;;5032588;28;20449;-68
2021/08/03 02:59:08;;;;;;;6.07;2.47;;;12.20;95.10;;;;;;5033665;28;20141;-68
2021/08/03 03:01:36;;;;;;;3.67;2.70;;;12.20;95.10;;;;;;5033043;28;20053;-68
2021/08/03 03:04:33;;;;;;;4.50;2.37;;;12.20;95.20;;;;;;5033302;28;20049;-68
2021/08/03 03:07:04;;;;;;;5.00;3.10;;;12.20;95.20;;;;;;5033391;28;20490;-68
2021/08/03 03:09:35;;;;;;;4.72;3.00;;;12.20;95.20;;;;;;5032892;28;20517;-68
2021/08/03 03:12:04;;;;;;;6.00;2.90;;;12.10;95.20;;;;;;5032859;28;20049;-67
2021/08/03 03:14:33;;;;;;;4.90;2.70;;;12.10;95.20;;;;;;5033055;28;20077;-67
2021/08/03 03:17:01;;;;;;;5.23;2.63;;;12.10;95.20;;;;;;5032305;28;20494;-68
2021/08/03 03:19:33;;;;;;;4.47;2.90;;;12.10;95.20;;;;;;5032493;28;20448;-68
2021/08/03 03:22:02;;;;;;;4.50;2.53;;;12.10;95.30;;;;;;5033190;28;20057;-67
2021/08/03 03:24:32;;;;;;;4.63;2.70;;;12.10;95.30;;;;;;5032198;28;20079;-68
2021/08/03 03:27:00;;;;;;;5.43;3.20;;;12.10;95.30;;;;;;5033154;28;20053;-68
2021/08/03 03:29:26;;;;;;;4.97;2.90;;;12.10;95.30;;;;;;5033154;28;20057;-68
2021/08/03 03:31:54;;;;;;;4.83;2.60;;;12.10;95.30;;;;;;5032301;28;20054;-68
2021/08/03 03:34:21;;;;;;;4.40;2.80;;;12.10;95.40;;;;;;5032700;28;20132;-68
2021/08/03 03:36:51;;;;;;;5.20;3.13;;;12.10;95.40;;;;;;5032241;28;20622;-68
2021/08/03 03:39:18;;;;;;;4.40;2.43;;;12.10;95.50;;;;;;5032387;28;20037;-68
2021/08/03 03:41:48;;;;;;;5.50;2.70;;;12.20;95.50;;;;;;5032845;28;20050;-68
2021/08/03 03:44:17;;;;;;;4.43;3.10;;;12.20;95.50;;;;;;5032153;28;20053;-68
2021/08/03 03:46:48;;;;;;;5.27;2.77;;;12.20;95.40;;;;;;5032596;28;20053;-68
2021/08/03 03:49:18;;;;;;;4.55;2.63;;;12.30;95.50;;;;;;5032404;28;20075;-68
2021/08/03 03:51:44;;;;;;;4.30;2.70;;;12.30;95.50;;;;;;5031783;28;20140;-68
2021/08/03 03:54:18;;;;;;;4.10;2.33;;;12.30;95.50;;;;;;5032331;28;20048;-68
2021/08/03 03:56:52;;;;;;;5.70;2.63;;;12.30;95.50;;;;;;5032660;28;20108;-68
2021/08/03 03:59:20;;;;;;;4.67;2.40;;;12.30;95.50;;;;;;5031461;28;20053;-67
2021/08/03 04:01:51;;;;;;;3.83;2.73;;;12.40;95.50;;;;;;5032639;28;20124;-68
2021/08/03 04:04:18;;;;;;;4.10;2.30;;;12.30;95.50;;;;;;5032254;28;20050;-67
2021/08/03 04:06:44;;;;;;;8.17;2.60;;;12.40;95.50;;;;;;5031791;28;20053;-68
2021/08/03 04:09:17;;;;;;;4.77;2.30;;;12.40;95.50;;;;;;5032054;28;20492;-67
2021/08/03 04:11:44;;;;;;;6.70;2.57;;;12.40;95.60;;;;;;5032336;28;20520;-68
2021/08/03 04:14:13;;;;;;;4.43;2.70;;;12.40;95.60;;;;;;5030963;28;20053;-69
2021/08/03 04:16:40;;;;;;;3.53;2.33;;;12.40;95.70;;;;;;5032183;28;20054;-68
2021/08/03 04:19:06;;;;;;;4.37;2.63;;;12.40;95.80;;;;;;5031211;28;20478;-68
2021/08/03 04:21:32;;;;;;;6.03;2.20;;;12.40;95.90;;;;;;5032367;28;20157;-68
2021/08/03 04:23:57;;;;;;;3.47;1.97;;;12.40;95.90;;;;;;5032350;28;20064;-69
2021/08/03 04:26:23;;;;;;;3.10;1.70;;;12.40;95.90;;;;;;5031322;28;20483;-68
2021/08/03 04:28:48;;;;;;;4.37;1.83;;;12.40;95.90;;;;;;5032086;28;20461;-68
2021/08/03 04:31:17;;;;;;;3.40;2.10;;;12.40;95.90;;;;;;5034031;28;20447;-68
2021/08/03 04:33:42;;;;;;;3.30;2.10;;;12.40;95.90;;;;;;5035993;28;20064;-68
2021/08/03 04:36:08;;;;;;;5.07;2.30;;;12.40;96.00;;;;;;5036088;28;20049;-68
2021/08/03 04:38:34;;;;;;;3.27;2.17;;;12.40;95.60;;;;;;5036318;28;20490;-68
2021/08/03 04:40:59;;;;;;;4.83;2.50;;;12.40;96.00;;;;;;5035261;28;20050;-68
2021/08/03 04:43:27;;;;;;;3.50;2.20;;;12.50;96.00;;;;;;5036138;28;20045;-69
2021/08/03 04:45:52;;;;;;;4.73;2.77;;;12.50;96.00;;;;;;5035909;28;20115;-68
2021/08/03 04:48:18;;;;;;;4.43;2.67;;;12.60;96.00;;;;;;5035094;28;20049;-69
2021/08/03 04:50:44;;;;;;;4.23;2.97;;;12.50;95.90;;;;;;5036086;28;20088;-68
2021/08/03 04:53:09;;;;;;;3.27;2.10;;;12.50;96.00;;;;;;5035506;28;20080;-68
2021/08/03 04:55:35;;;;;;;4.10;2.20;;;12.50;95.90;;;;;;5035050;28;20493;-68
2021/08/03 04:58:00;;;;;;;4.23;2.27;;;12.60;96.00;;;;;;5035580;28;20053;-69
2021/08/03 05:00:27;;;;;;;3.57;2.23;;;12.50;96.00;;;;;;5035550;28;20410;-68
2021/08/03 05:02:52;;;;;;;3.63;2.73;;;12.60;96.10;;;;;;5035141;28;20053;-68
2021/08/03 05:05:18;;;;;;;6.93;2.83;;;12.60;96.10;;;;;;5035505;28;20057;-68
2021/08/03 05:07:54;;;;;;;6.40;3.10;;;12.70;96.10;;;;;;5035551;28;20536;-68
2021/08/03 05:10:19;;;;;;;5.30;2.67;;;12.70;96.10;;;;;;5034516;28;20857;-67
2021/08/03 05:12:45;;;;;;;5.77;2.57;;;12.80;96.10;;;;;;5035383;28;20049;-68
2021/08/03 05:15:11;;;;;;;4.73;2.20;;;12.80;96.10;;;;;;5034663;28;20144;-69
2021/08/03 05:17:36;;;;;;;4.93;2.37;;;12.90;96.10;;;;;;5039463;28;20401;-68
2021/08/03 05:20:04;;;;;;;6.83;2.73;;;13.00;96.20;;;;;;5043749;28;20068;-68
2021/08/03 05:22:30;;;;;;;6.60;2.90;;;13.10;96.20;;;;;;5042199;28;20520;-68
2021/08/03 05:24:56;;;;;;;3.33;2.60;;;13.20;96.20;;;;;;5047866;28;20446;-68
2021/08/03 05:27:22;;;;;;;4.73;2.80;;;13.20;96.10;;;;;;5054821;28;20159;-68
2021/08/03 05:29:48;;;;;;;4.23;2.73;;;13.30;96.10;;;;;;5054563;28;20049;-67
2021/08/03 05:32:14;;;;;;;4.30;3.23;;;13.40;96.10;;;;;;5054762;28;20501;-68
2021/08/03 05:34:39;;;;;;;4.57;2.53;;;13.40;96.00;;;;;;5054986;28;20045;-67
2021/08/03 05:37:06;;;;;;;5.90;2.80;;;13.50;96.00;;;;;;5054056;28;20048;-68
2021/08/03 05:39:35;;;;;;;6.57;2.87;;;13.50;96.00;;;;;;5050971;28;20067;-67
2021/08/03 05:42:02;;;;;;;5.57;2.80;;;13.60;96.10;;;;;;5048070;28;20128;-68
2021/08/03 05:44:32;;;;;;;3.50;2.35;;;13.70;96.10;;;;;;5047221;28;20072;-67
2021/08/03 05:46:59;;;;;;;5.53;2.20;;;13.80;96.00;;;;;;5055064;28;20045;-68
2021/08/03 05:49:26;;;;;;;4.17;2.70;;;13.80;95.90;;;;;;5055006;28;20444;-67
2021/08/03 05:51:52;;;;;;;5.33;2.50;;;13.90;95.90;;;;;;5054074;28;20083;-67
2021/08/03 05:54:18;;;;;;;2.80;1.90;;;13.90;95.80;;;;;;5054459;28;20084;-67
2021/08/03 05:56:44;;;;;;;5.10;2.80;;;14.00;95.90;;;;;;5054221;28;20474;-67
2021/08/03 05:59:10;;;;;;;3.23;2.20;;;14.00;95.80;;;;;;5053627;28;20041;-68
2021/08/03 06:01:35;;;;;;;3.67;2.20;;;14.00;95.80;;;;;;5054306;28;20500;-67
2021/08/03 06:04:02;;;;;;;4.73;2.23;;;14.10;95.80;;;;;;5054162;28;20088;-68
2021/08/03 06:06:34;;;;;;;3.70;2.47;;;14.10;95.80;;;;;;5042208;28;20045;-68
2021/08/03 06:09:02;;;;;;;4.73;2.40;;;14.10;95.70;;;;;;5041154;28;20041;-68
2021/08/03 06:11:31;;;;;;;2.73;2.07;;;14.10;95.70;;;;;;5048260;28;20060;-68
2021/08/03 06:13:58;;;;;;;6.10;2.07;;;14.20;95.80;;;;;;5054334;28;20057;-67
2021/08/03 06:16:25;;;;;;;3.27;2.00;;;14.20;95.80;;;;;;5053877;28;20056;-68
2021/08/03 06:18:53;;;;;;;3.53;2.00;;;14.30;95.80;;;;;;5053466;28;20565;-68
2021/08/03 06:21:20;;;;;;;6.07;2.40;;;14.30;95.80;;;;;;5051986;28;20068;-67
2021/08/03 06:23:48;;;;;;;4.23;2.40;;;14.40;95.60;;;;;;5044996;28;20053;-67
2021/08/03 06:26:17;;;;;;;4.20;2.57;;;14.40;95.50;;;;;;5052790;28;20505;-67
2021/08/03 06:28:46;;;;;;;7.20;1.93;;;14.50;95.50;;;;;;5054050;28;20049;-68
2021/08/03 06:31:13;;;;;;;4.40;2.30;;;14.60;95.30;;;;;;5053443;28;20044;-68
2021/08/03 06:33:39;;;;;;;5.17;1.40;;;14.60;95.10;;;;;;5053273;28;20455;-67
2021/08/03 06:36:05;;;;;;;4.10;1.43;;;14.60;95.00;;;;;;5053121;28;20132;-67
2021/08/03 06:38:31;;;;;;;6.40;1.70;;;14.60;94.90;;;;;;5048467;28;20097;-68
2021/08/03 06:41:15;;;;;;;2.70;1.53;;;14.70;94.90;;;;;;5052150;28;20045;-67
2021/08/03 06:43:56;;;;;;;3.83;1.40;;;14.70;94.80;;;;;;5053848;28;20045;-68
2021/08/03 06:46:23;;;;;;;2.17;1.30;;;14.80;94.70;;;;;;5053216;28;20063;-68
2021/08/03 06:49:10;;;;;;;6.80;2.13;;;14.90;94.60;;;;;;5052717;28;20490;-68
2021/08/03 06:51:38;;;;;;;3.47;1.50;;;14.90;94.50;;;;;;5053551;28;20045;-68
2021/08/03 06:54:07;;;;;;;3.50;1.40;;;15.00;94.40;;;;;;5051053;28;20131;-69
2021/08/03 06:56:51;;;;;;;5.17;1.43;;;15.00;94.40;;;;;;5052831;28;20395;-70
2021/08/03 06:59:22;;;;;;;2.10;1.23;;;15.10;94.40;;;;;;5052699;28;20043;-69
2021/08/03 07:02:06;;;;;;;;;;;15.20;94.30;;;;;;5052394;28;20059;-69
2021/08/03 07:04:41;;;;;;;2.70;1.10;;;15.20;94.10;;;;;;5052905;28;20004;-69
2021/08/03 07:07:08;;;;;;;2.07;1.20;;;15.20;94.00;;;;;;5052309;28;20140;-69
2021/08/03 07:09:39;;;;;;;5.00;1.10;;;15.30;93.80;;;;;;5052261;28;20052;-69
2021/08/03 07:12:05;;;;;;;1.67;0.90;;;15.30;93.70;;;;;;5052522;28;20045;-69
2021/08/03 07:14:34;;;;;;;6.60;1.50;;;15.40;93.50;;;;;;5052606;28;20045;-68
2021/08/03 07:17:02;;;;;;;3.60;1.20;;;15.40;93.30;;;;;;5051474;28;20247;-69
2021/08/03 07:19:29;;;;;;;1.97;0.90;;;15.50;93.30;;;;;;5052681;28;20068;-69
2021/08/03 07:22:01;;;;;;;3.10;0.90;;;15.50;93.10;;;;;;5051643;28;20045;-69
2021/08/03 07:24:28;;;;;;;1.80;0.67;;;15.50;93.00;;;;;;5053001;28;20053;-69
2021/08/03 07:26:54;;;;;;;1.60;0.50;;;15.60;92.60;;;;;;5052609;28;20041;-68
2021/08/03 07:29:19;;;;;;;1.80;0.80;;;15.60;92.10;;;;;;5043003;28;20165;-69
2021/08/03 07:31:47;;;;;;;3.27;0.87;;;15.60;92.10;;;;;;5039909;28;20041;-69
2021/08/03 07:34:16;;;;;;;2.73;0.80;;;15.70;92.10;;;;;;5041054;28;20045;-69
2021/08/03 07:36:41;;;;;;;5.30;0.97;;;15.80;92.00;;;;;;5041319;28;20055;-68
2021/08/03 07:39:08;;;;;;;3.73;1.33;;;15.80;91.80;;;;;;5040225;28;20045;-69
2021/08/03 07:41:35;;;;;;;2.23;0.97;;;15.90;91.80;;;;;;5040866;28;20053;-69
2021/08/03 07:44:01;;;;;;;3.87;1.20;;;16.00;91.80;;;;;;5041181;28;20073;-69
2021/08/03 07:46:32;;;;;;;2.13;0.77;;;16.00;91.70;;;;;;5039916;28;20060;-68
2021/08/03 07:48:58;;;;;;;3.57;0.80;;;16.10;91.50;;;;;;5040508;28;20051;-68
2021/08/03 07:51:25;;;;;;;2.83;0.67;;;16.10;91.40;;;;;;5040947;28;20052;-68
2021/08/03 07:53:51;;;;;;;2.80;0.87;;;16.10;91.10;;;;;;5040612;28;20051;-69
2021/08/03 07:56:17;;;;;;;1.60;0.60;;;16.00;90.80;;;;;;5040017;28;20049;-68
2021/08/03 07:58:43;;;;;;;3.93;0.70;;;16.00;90.70;;;;;;5041146;28;20366;-69
2021/08/03 08:01:09;;;;;;;1.83;1.13;;;16.00;90.70;;;;;;5039694;28;20049;-68
2021/08/03 08:03:37;;;;;;;2.33;0.80;;;16.00;90.60;;;;;;5040584;28;20045;-68
2021/08/03 08:06:04;;;;;;;1.70;0.77;;;16.00;90.60;;;;;;5040535;28;20114;-70
2021/08/03 08:08:31;;;;;;;1.43;0.60;;;16.10;90.10;;;;;;5039999;28;20497;-69
2021/08/03 08:10:57;;;;;;;1.03;0.60;;;16.20;89.30;;;;;;5040108;28;20041;-69
2021/08/03 08:13:23;;;;;;;3.10;0.60;;;16.30;88.60;;;;;;5040235;28;20098;-69
2021/08/03 08:15:49;;;;;;;2.17;0.70;;;16.40;88.50;;;;;;5049066;28;20059;-68
2021/08/03 08:18:15;;;;;;;2.60;0.70;;;16.50;88.40;;;;;;5050188;28;20048;-68
2021/08/03 08:20:43;;;;;;;2.70;0.50;;;16.70;87.70;;;;;;5051452;28;20055;-69
2021/08/03 08:23:10;;;;;;;0.97;0.50;;;16.80;86.80;;;;;;5051469;28;20053;-68
2021/08/03 08:25:36;;;;;;;2.03;0.50;;;16.90;85.60;;;;;;5051265;28;20052;-69
2021/08/03 08:28:03;;;;;;;2.23;0.63;;;16.90;84.80;;;;;;5051394;28;20048;-68
2021/08/03 08:30:28;;;;;;;1.90;0.60;;;16.90;84.10;;;;;;5051709;28;20095;-68
2021/08/03 08:32:54;;;;;;;2.00;0.70;;;16.90;84.30;;;;;;5051150;28;20056;-68
2021/08/03 08:35:20;;;;;;;2.03;0.60;;;17.00;85.40;;;;;;5051545;28;20056;-68
2021/08/03 08:37:46;;;;;;;3.50;0.70;;;17.00;84.80;;;;;;5051941;28;20101;-69
2021/08/03 08:40:12;;;;;;;3.43;0.50;;;17.10;85.30;;;;;;5050583;28;20049;-69
2021/08/03 08:42:38;;;;;;;2.20;0.50;;;17.30;85.00;;;;;;5041374;28;20049;-69
2021/08/03 08:45:05;;;;;;;1.60;0.50;;;17.50;83.10;;;;;;5040675;28;20084;-68
2021/08/03 08:47:32;;;;;;;1.70;0.60;;;17.60;81.30;;;;;;5034314;28;20053;-69
2021/08/03 08:50:05;;;;;;;6.30;0.83;;;17.60;80.30;;;;;;5031519;28;20500;-67
2021/08/03 08:52:39;;;;;;;2.33;0.57;;;17.50;79.30;;;;;;5039181;28;20096;-68
2021/08/03 08:55:08;;;;;;;1.70;0.67;;;17.40;78.80;;;;;;5038927;28;20490;-69
2021/08/03 08:57:33;;;;;;;2.00;0.40;;;17.40;78.60;;;;;;5040553;28;20119;-68
2021/08/03 08:59:59;;;;;;;2.33;0.63;;;17.40;78.40;;;;;;5036057;28;20116;-68
2021/08/03 09:02:41;;;;;;;3.80;0.83;;;17.30;77.60;;;;;;5039694;28;20399;-68
2021/08/03 09:05:12;;;;;;;1.67;0.70;;;17.40;77.00;;;;;;5050608;28;20099;-68
2021/08/03 09:07:48;;;;;;;2.05;0.70;;;17.40;77.20;;;;;;5050849;28;20045;-67
2021/08/03 09:10:32;;;;;;;2.33;0.63;;;17.30;77.40;;;;;;5038446;28;20077;-68
2021/08/03 09:13:03;;;;;;;1.80;0.80;;;17.40;77.00;;;;;;5030105;28;20048;-69
2021/08/03 09:15:30;;;;;;;1.20;0.60;;;17.40;77.20;;;;;;5029247;28;20142;-69
2021/08/03 09:18:11;;;;;;;1.70;0.60;;;17.40;76.70;;;;;;5031977;28;20149;-68
2021/08/03 09:20:37;;;;;;;1.48;0.63;;;17.50;76.30;;;;;;5033637;28;20093;-69
2021/08/03 09:23:03;;;;;;;1.07;0.50;;;17.50;76.30;;;;;;5032892;28;20207;-68
2021/08/03 09:25:29;;;;;;;3.87;0.80;;;17.50;75.60;;;;;;5033905;28;20057;-68
2021/08/03 09:28:02;;;;;;;3.37;0.60;;;17.50;74.90;;;;;;5034994;28;20128;-68
2021/08/03 09:30:33;;;;;;;2.50;0.63;;;17.50;74.80;;;;;;5034467;28;20520;-68
2021/08/03 09:32:59;;;;;;;1.75;0.80;;;17.50;75.80;;;;;;5034975;28;20410;-68
2021/08/03 09:35:26;;;;;;;2.40;1.53;;;17.50;76.20;;;;;;5034604;28;20380;-68
2021/08/03 09:37:53;;;;;;;1.90;0.67;;;17.50;75.30;;;;;;5034666;28;20414;-68
2021/08/03 09:40:28;;;;;;;1.53;0.80;;;17.60;74.50;;;;;;5034224;28;20482;-68
2021/08/03 09:43:01;;;;;;;2.47;0.70;;;17.70;74.20;;;;;;5034159;28;20045;-68
2021/08/03 09:45:35;;;;;;;2.00;0.70;;;17.70;74.50;;;;;;5034955;28;20107;-68
2021/08/03 09:48:13;;;;;;;2.03;0.80;;;17.80;74.70;;;;;;5034728;28;20433;-68
2021/08/03 09:51:01;;;;;;;0.77;0.43;;;17.90;75.10;;;;;;5034024;28;20060;-68
2021/08/03 09:53:37;;;;;;;2.40;0.73;;;18.10;72.80;;;;;;5034528;28;20072;-68
2021/08/03 09:56:04;;;;;;;2.97;0.90;;;18.20;72.60;;;;;;5033903;28;20473;-68
2021/08/03 09:58:31;;;;;;;1.47;0.67;;;18.20;72.60;;;;;;5033719;28;20172;-67
2021/08/03 10:01:17;;;;;;;2.63;0.77;;;18.30;72.20;;;;;;5034713;28;20045;-67
2021/08/03 10:03:43;;;;;;;2.17;0.80;;;18.40;72.40;;;;;;5033483;28;20045;-68
2021/08/03 10:06:09;;;;;;;1.57;0.90;;;18.50;71.30;;;;;;5041059;28;20041;-67
2021/08/03 10:08:37;;;;;;;1.93;0.90;;;18.60;69.70;;;;;;5043790;28;20122;-68
2021/08/03 10:11:03;;;;;;;2.63;0.80;;;18.50;67.90;;;;;;5043487;28;20045;-69
2021/08/03 10:13:29;;;;;;;2.17;1.00;;;18.50;68.00;;;;;;5042095;28;20080;-68
2021/08/03 10:15:55;;;;;;;1.43;0.70;;;18.60;67.40;;;;;;5041455;28;20139;-68
2021/08/03 10:18:20;;;;;;;1.00;0.70;;;18.70;67.10;;;;;;5033017;28;20526;-68
2021/08/03 10:20:47;;;;;;;2.53;1.07;;;18.90;66.90;;;;;;5034073;28;20358;-68
2021/08/03 10:23:14;;;;;;;1.87;0.80;;;19.00;66.50;;;;;;5033522;28;20053;-68
2021/08/03 10:25:43;;;;;;;2.70;1.00;;;19.10;65.80;;;;;;5038100;28;20098;-69
2021/08/03 10:28:22;;;;;;;2.40;1.00;;;19.20;64.80;;;;;;5052235;28;20469;-68
2021/08/03 10:30:48;;;;;;;1.83;1.13;;;19.30;64.50;;;;;;5053408;28;20103;-68
2021/08/03 10:33:46;;;;;;;1.60;0.73;;;19.50;64.70;;;;;;5052564;28;20135;-69
2021/08/03 10:36:37;;;;;;;2.73;1.13;;;19.70;62.80;;;;;;5052573;28;20486;-69
2021/08/03 10:39:16;;;;;;;3.53;1.20;;;19.80;58.50;;;;;;5046077;28;20723;-69
2021/08/03 10:42:00;;;;;;;2.23;0.83;;;19.80;59.70;;;;;;5035951;28;20056;-70
2021/08/03 10:44:46;;;;;;;2.17;0.70;;;19.80;55.90;;;;;;5033482;28;20056;-69
2021/08/03 10:47:34;;;;;;;2.60;0.90;;;19.80;59.30;;;;;;5032439;28;20045;-69
2021/08/03 10:50:07;;;;;;;1.90;0.90;;;19.80;61.40;;;;;;5032440;28;20774;-69
2021/08/03 10:52:44;;;;;;;1.20;0.80;;;19.60;61.70;;;;;;5032784;28;20058;-69
2021/08/03 10:55:28;;;;;;;1.90;1.10;;;19.50;62.90;;;;;;5031843;28;20139;-69
2021/08/03 10:58:09;;;;;;;1.70;0.90;;;19.30;63.50;;;;;;5032956;28;20049;-68
2021/08/03 11:00:45;;;;;;;1.80;0.93;;;19.20;64.30;;;;;;5031793;28;20159;-68
2021/08/03 11:03:36;;;;;;;4.90;1.13;;;19.00;63.90;;;;;;5032858;28;20053;-68
2021/08/03 11:06:22;;;;;;;4.07;1.00;;;18.90;64.70;;;;;;5032412;28;20604;-67
2021/08/03 11:08:48;;;;;;;3.20;1.03;;;18.80;65.80;;;;;;5030727;28;20046;-68
2021/08/03 11:11:22;;;;;;;2.37;1.10;;;18.80;66.10;;;;;;5032256;28;20792;-69
2021/08/03 11:13:53;;;;;;;2.47;0.90;;;18.80;66.50;;;;;;5031321;28;20091;-68
2021/08/03 11:16:19;;;;;;;1.55;1.05;;;18.70;66.40;;;;;;5031275;28;20098;-68
2021/08/03 11:18:54;;;;;;;3.47;0.97;;;18.70;66.40;;;;;;5032045;28;20109;-68
2021/08/03 11:21:25;;;;;;;3.17;1.27;;;18.70;66.80;;;;;;5030766;28;20143;-68
2021/08/03 11:24:14;;;;;;;3.08;0.95;;;18.70;66.50;;;;;;5032172;28;20048;-68
2021/08/03 11:26:52;;;;;;;3.17;1.10;;;18.90;66.10;;;;;;5032736;28;20076;-68
2021/08/03 11:29:31;;;;;;;1.90;1.00;;;19.00;65.20;;;;;;5031624;28;20144;-68
2021/08/03 11:31:58;;;;;;;4.53;1.30;;;19.00;65.00;;;;;;5032440;28;20470;-68
2021/08/03 11:34:34;;;;;;;2.83;1.27;;;18.90;65.90;;;;;;5031869;28;20490;-68
2021/08/03 11:37:14;;;;;;;2.73;1.00;;;18.70;66.50;;;;;;5031561;28;20049;-68
2021/08/03 11:39:42;;;;;;;2.90;1.13;;;18.60;67.30;;;;;;5032346;28;20073;-67
2021/08/03 11:42:09;;;;;;;3.20;1.20;;;18.50;69.10;;;;;;5031033;28;20075;-68
2021/08/03 11:44:35;;;;;;;2.63;1.07;;;18.50;70.00;;;;;;5032343;28;20045;-68
2021/08/03 11:47:08;;;;;;;2.40;1.10;;;18.50;71.80;;;;;;5031989;28;20053;-69
2021/08/03 11:49:33;;;;;;;5.27;0.90;;;18.60;68.90;;;;;;5031085;28;20056;-68
2021/08/03 11:52:15;;;;;;;2.70;0.97;;;18.70;66.30;;;;;;5031830;28;20046;-67
2021/08/03 11:54:43;;;;;;;1.60;0.80;;;18.90;65.40;;;;;;5031955;28;20042;-67
2021/08/03 11:57:30;;;;;;;2.57;1.10;;;19.00;64.60;;;;;;5031157;28;20055;-67
2021/08/03 12:00:04;;;;;;;2.30;0.87;;;19.20;63.30;;;;;;5031914;28;20136;-68
2021/08/03 12:02:30;;;;;;;2.13;0.87;;;19.50;62.20;;;;;;5038043;28;20603;-68
2021/08/03 12:05:04;;;;;;;2.03;0.93;;;19.70;61.80;;;;;;5051483;28;20049;-68
2021/08/03 12:07:30;;;;;;;1.83;0.90;;;19.70;61.70;;;;;;5051964;28;20052;-69
2021/08/03 12:09:56;;;;;;;3.10;1.20;;;19.70;62.20;;;;;;5052037;28;20045;-69
2021/08/03 12:12:21;;;;;;;2.63;0.90;;;19.60;62.70;;;;;;5050575;28;20049;-69
2021/08/03 12:14:47;;;;;;;6.50;1.40;;;19.60;62.50;;;;;;5051189;28;20061;-69
2021/08/03 12:17:25;;;;;;;5.00;1.00;;;19.60;62.40;;;;;;5050789;28;20049;-69
2021/08/03 12:19:51;;;;;;;4.33;1.07;;;19.50;62.20;;;;;;5051084;28;20057;-69
2021/08/03 12:22:31;;;;;;;1.83;0.90;;;19.50;62.20;;;;;;5051510;28;20057;-69
2021/08/03 12:25:02;;;;;;;3.00;0.90;;;19.50;61.90;;;;;;5050616;28;20048;-69
2021/08/03 12:27:38;;;;;;;3.07;0.90;;;19.50;61.70;;;;;;5051787;28;20099;-68
2021/08/03 12:30:27;;;;;;;3.73;1.10;;;19.50;62.20;;;;;;5050933;28;20049;-68
2021/08/03 12:32:53;;;;;;;2.10;1.00;;;19.50;61.90;;;;;;5050737;28;20465;-68
2021/08/03 12:35:19;;;;;;;2.37;1.00;;;19.60;62.20;;;;;;5051263;28;20076;-68
2021/08/03 12:37:44;;;;;;;1.90;0.90;;;19.70;62.00;;;;;;5051586;28;20045;-68
2021/08/03 12:40:33;;;;;;;3.90;1.00;;;19.70;61.50;;;;;;5050157;28;20056;-68
2021/08/03 12:43:00;;;;;;;1.90;1.13;;;19.80;59.70;;;;;;5051513;28;20053;-68
2021/08/03 12:45:26;;;;;;;2.90;1.47;;;19.80;60.80;;;;;;5050602;28;20114;-68
2021/08/03 12:48:03;;;;;;;2.27;0.97;;;19.80;60.00;;;;;;5051685;28;20466;-68
2021/08/03 12:50:44;;;;;;;2.33;0.80;;;19.80;59.50;;;;;;5051109;28;20405;-68
2021/08/03 12:53:31;;;;;;;2.83;1.00;;;19.90;59.70;;;;;;5054332;28;20049;-68
2021/08/03 12:56:16;;;;;;;5.83;3.27;;;20.10;60.00;;;;;;5055354;28;20118;-68
2021/08/03 12:58:45;;;;;;;3.70;1.67;;;20.30;59.10;;;;;;5055407;28;20119;-68
2021/08/03 13:01:18;;;;;;;2.80;1.37;;;20.40;58.80;;;;;;5054190;28;20125;-69
2021/08/03 13:03:47;;;;;;;1.57;1.20;;;20.50;58.80;;;;;;5055216;28;20135;-68